Time;durP1;ratioP1;P1;durP2;ratioP2;P2;SDS_P1;SDS_P2;PMS_P1;PMS_P2;Temp;Humidity;BMP_temperature;BMP_pressure;BME280_temperature;BME280_humidity;BME280_pressure;Samples;Min_cycle;Max_cycle;Signal;HPM_P1;HPM_P2
2021/10/09 10:32:54;;;;;;;5.32;3.75;;;22.40;51.30;;;;;;5119268;27;20393;-30
2021/10/09 10:35:29;;;;;;;4.03;3.42;;;23.50;50.30;;;;;;5110993;28;20031;-35
2021/10/09 10:38:03;;;;;;;12.82;5.28;;;23.50;49.80;;;;;;5111388;28;20027;-28
2021/10/09 10:40:43;;;;;;;6.93;6.00;;;23.30;49.60;;;;;;5111170;28;20038;-43
2021/10/09 10:48:56;;;;;;;6.03;5.07;;;22.20;51.30;;;;;;5111113;28;20035;-43
2021/10/09 10:54:16;;;;;;;6.63;4.50;;;22.00;51.90;;;;;;5110759;28;20045;-47
2021/10/09 10:56:57;;;;;;;7.97;5.20;;;21.90;52.00;;;;;;5110880;28;20034;-46
2021/10/09 10:59:29;;;;;;;8.25;5.22;;;21.70;51.80;;;;;;5110895;28;20020;-46
2021/10/09 11:02:11;;;;;;;5.15;3.90;;;21.60;51.70;;;;;;5110872;28;20051;-47
2021/10/09 11:04:41;;;;;;;5.82;4.57;;;21.60;51.80;;;;;;5110790;28;20024;-46
2021/10/09 11:07:07;;;;;;;5.07;4.53;;;21.50;52.00;;;;;;5126039;28;20024;-46
2021/10/09 11:09:33;;;;;;;6.32;4.55;;;21.40;51.90;;;;;;5110899;28;20107;-47
2021/10/09 11:11:59;;;;;;;7.63;3.85;;;21.30;51.70;;;;;;5110604;28;20036;-47
2021/10/09 11:14:28;;;;;;;5.75;3.85;;;21.30;51.20;;;;;;5109319;28;20347;-47
2021/10/09 11:17:04;;;;;;;4.25;3.78;;;21.40;50.80;;;;;;5109468;28;20040;-47
2021/10/09 11:19:50;;;;;;;5.07;3.92;;;21.30;51.10;;;;;;5110781;28;20019;-47
2021/10/09 11:22:19;;;;;;;4.40;4.00;;;21.20;51.40;;;;;;5110070;28;20028;-47
2021/10/09 11:24:49;;;;;;;5.85;4.00;;;21.30;51.10;;;;;;5110987;28;20500;-47
2021/10/09 11:27:16;;;;;;;4.95;4.22;;;21.40;51.20;;;;;;5110411;28;20111;-47
2021/10/09 11:29:42;;;;;;;6.43;4.70;;;21.30;51.50;;;;;;5110645;28;20027;-47
2021/10/09 11:32:09;;;;;;;7.80;4.93;;;21.20;51.90;;;;;;5110039;28;20035;-47
2021/10/09 11:34:51;;;;;;;7.10;5.03;;;21.30;52.20;;;;;;5110071;28;20038;-43
2021/10/09 11:37:17;;;;;;;6.88;4.55;;;21.30;52.10;;;;;;5109680;28;20177;-44
2021/10/09 11:39:51;;;;;;;7.80;4.90;;;21.30;52.10;;;;;;5109907;28;20135;-43
2021/10/09 11:42:20;;;;;;;6.95;5.05;;;21.20;52.50;;;;;;5106865;28;20028;-43
2021/10/09 11:45:18;;;;;;;5.80;4.88;;;21.10;52.80;;;;;;5096375;28;20458;-43
2021/10/09 12:18:54;;;;;;;10.35;5.97;;;31.60;30.40;;;;;;5151259;27;20365;-65
2021/10/09 12:21:24;;;;;;;9.50;6.47;;;26.10;41.40;;;;;;5114483;28;20499;-67
2021/10/09 12:23:51;;;;;;;9.48;5.47;;;24.30;45.50;;;;;;5114538;28;20068;-63
2021/10/09 12:26:17;;;;;;;10.98;6.20;;;23.60;47.00;;;;;;5132042;28;20030;-74
2021/10/09 12:29:02;;;;;;;8.07;6.18;;;23.20;47.90;;;;;;5097967;28;20027;-66
2021/10/09 12:31:28;;;;;;;14.43;6.30;;;23.00;48.20;;;;;;5132628;28;20058;-67
2021/10/09 12:33:54;;;;;;;14.95;7.80;;;22.80;48.60;;;;;;5080044;28;20068;-65
2021/10/09 12:36:31;;;;;;;17.55;8.30;;;22.70;49.30;;;;;;5113981;28;20381;-69
2021/10/09 12:39:21;;;;;;;14.48;7.70;;;22.70;49.40;;;;;;5115061;28;20032;-65
2021/10/09 12:41:48;;;;;;;16.92;8.07;;;22.60;49.50;;;;;;5114077;28;20020;-68
2021/10/09 12:44:14;;;;;;;16.02;7.05;;;22.70;48.90;;;;;;5113731;28;20047;-64
2021/10/09 12:46:39;;;;;;;18.88;7.10;;;22.80;48.90;;;;;;5131789;28;20059;-60
2021/10/09 12:49:05;;;;;;;11.63;6.95;;;23.30;47.80;;;;;;5132151;28;20113;-62
2021/10/09 12:51:31;;;;;;;14.45;6.13;;;24.10;45.40;;;;;;5123566;28;20063;-61
2021/10/09 12:54:02;;;;;;;9.55;6.45;;;23.70;45.90;;;;;;5111232;28;20381;-65
2021/10/09 12:56:28;;;;;;;10.13;7.13;;;23.60;46.30;;;;;;5110879;28;20038;-61
2021/10/09 12:58:54;;;;;;;11.02;6.63;;;23.50;46.50;;;;;;5111263;28;20110;-65
2021/10/09 13:01:19;;;;;;;13.57;6.47;;;24.00;45.30;;;;;;5111229;28;20019;-65
2021/10/09 13:03:45;;;;;;;13.70;6.70;;;23.30;47.20;;;;;;5111275;28;20086;-60
2021/10/09 13:06:11;;;;;;;10.90;6.47;;;23.00;48.10;;;;;;5105263;28;20012;-67
2021/10/09 13:08:37;;;;;;;14.40;7.18;;;22.90;48.60;;;;;;5097553;28;20028;-67
2021/10/09 13:11:03;;;;;;;10.32;6.65;;;22.80;48.80;;;;;;5089892;28;20028;-68
2021/10/09 13:13:29;;;;;;;10.45;6.35;;;22.80;48.90;;;;;;5112860;28;20061;-70
2021/10/09 13:15:54;;;;;;;10.48;6.32;;;22.80;48.90;;;;;;5112091;28;20096;-61
2021/10/09 13:18:20;;;;;;;9.20;5.78;;;22.90;49.00;;;;;;5068497;28;20187;-62
2021/10/09 14:04:19;;;;;;;1999.90;999.90;;;23.00;51.50;;;;;;5069537;28;20413;-63
2021/10/09 14:06:44;;;;;;;1999.90;999.90;;;22.90;57.00;;;;;;5069432;28;20087;-59
2021/10/09 14:09:10;;;;;;;81.60;51.13;;;22.90;55.00;;;;;;5068801;28;20025;-58
2021/10/09 14:11:36;;;;;;;6.88;5.18;;;22.80;54.10;;;;;;5070094;28;20025;-56
2021/10/09 14:14:02;;;;;;;6.85;4.55;;;22.80;53.70;;;;;;5069897;28;20116;-56
2021/10/09 14:16:27;;;;;;;4.95;4.10;;;22.80;53.50;;;;;;5070120;28;20024;-58
2021/10/09 14:18:53;;;;;;;5.60;4.25;;;22.90;53.50;;;;;;5070062;28;20020;-60
2021/10/09 14:21:19;;;;;;;6.28;4.35;;;22.90;53.60;;;;;;5068833;28;20025;-54
2021/10/09 14:23:45;;;;;;;9.15;4.72;;;22.90;53.60;;;;;;5035003;28;20131;-52
2021/10/09 14:26:11;;;;;;;10.05;5.82;;;23.00;54.10;;;;;;5050997;28;20032;-50
2021/10/09 14:28:36;;;;;;;5.03;4.55;;;23.00;53.20;;;;;;5061730;28;20025;-46
2021/10/09 14:31:02;;;;;;;6.72;4.78;;;23.10;53.80;;;;;;5054657;28;20029;-53
2021/10/09 14:33:28;;;;;;;6.50;4.68;;;23.20;53.40;;;;;;5065593;28;20509;-56
2021/10/09 14:35:54;;;;;;;6.18;4.85;;;23.20;52.80;;;;;;5054027;28;20009;-58
2021/10/09 14:38:20;;;;;;;7.60;4.53;;;23.30;52.60;;;;;;5060457;28;20025;-48
2021/10/09 14:40:46;;;;;;;6.20;4.75;;;23.30;52.30;;;;;;5060872;28;20028;-60
2021/10/09 14:43:11;;;;;;;7.72;4.13;;;23.30;52.20;;;;;;5065960;28;20029;-60
2021/10/09 14:45:39;;;;;;;4.57;4.18;;;23.30;52.10;;;;;;5048810;28;20021;-54
2021/10/09 14:48:15;;;;;;;5.10;4.28;;;23.30;52.00;;;;;;5046008;28;20052;-51
2021/10/09 15:16:08;;;;;;;4.10;3.45;;;23.60;51.20;;;;;;5007875;28;20022;-58
2021/10/09 15:18:21;;;;;;;6.63;3.50;;;23.60;50.90;;;;;;4974314;28;20038;-54
2021/10/09 15:20:48;;;;;;;4.53;3.30;;;23.50;50.60;;;;;;4973860;28;20533;-53
